Terminal Aerodrome Forecast
Issued by NWS

Home | Current Version | Previous Version | Text Only | Print | Product List | Glossary On
Versions: 1 2 3 4 5 6 7 8 9 10 11 12 13 14 15 16 17 18 19 20
000
FTUS46 KMFR 222300 RRA
TAFOTH
TAF
KOTH 222347Z 2300/2324 19008KT 5SM RA BR BKN025 OVC035
      TEMPO 2300/2302 2SM RA BR OVC015
     FM230200 19010G15KT P6SM -RA BKN015 OVC025
     FM230900 19009KT P6SM -SHRA BKN015 OVC025
     FM231800 22012KT P6SM -SHRA SCT025 BKN035=

USA.gov is the U.S. government's official web portal to all federal, state and local government web resources and services.